Time;durP1;ratioP1;P1;durP2;ratioP2;P2;SDS_P1;SDS_P2;PMS_P1;PMS_P2;Temp;Humidity;BMP_temperature;BMP_pressure;BME280_temperature;BME280_humidity;BME280_pressure;Samples;Min_cycle;Max_cycle;Signal;HPM_P1;HPM_P2
2022/10/30 05:09:06;;;;;;;14.47;5.00;;;14.80;62.80;;;;;;21104;6532;89770;-88
2022/10/30 05:11:32;;;;;;;7.17;5.10;;;14.70;62.60;;;;;;20742;6824;117837;-90
2022/10/30 05:13:58;;;;;;;7.13;4.90;;;14.70;62.30;;;;;;20706;6823;117863;-90
2022/10/30 05:16:24;;;;;;;9.97;5.50;;;14.80;62.10;;;;;;20738;6821;116734;-89
2022/10/30 05:18:50;;;;;;;9.60;4.80;;;14.90;62.00;;;;;;20615;6881;117926;-89
2022/10/30 05:21:16;;;;;;;10.07;5.93;;;14.90;61.80;;;;;;20389;6878;319945;-90
2022/10/30 05:23:42;;;;;;;6.17;4.73;;;15.30;60.60;;;;;;20586;6878;117753;-90
2022/10/30 05:26:08;;;;;;;8.60;5.47;;;15.40;60.10;;;;;;20600;6880;118264;-89
2022/10/30 05:28:33;;;;;;;10.77;4.97;;;15.40;60.20;;;;;;20604;6880;117873;-90
2022/10/30 05:30:59;;;;;;;8.73;4.72;;;15.30;60.30;;;;;;20611;6880;117629;-89
2022/10/30 05:33:25;;;;;;;11.20;5.47;;;15.20;60.30;;;;;;20603;6880;118047;-89
2022/10/30 05:35:50;;;;;;;9.57;5.45;;;15.20;60.50;;;;;;20394;6880;317129;-92
2022/10/30 05:38:16;;;;;;;11.15;6.07;;;15.50;59.40;;;;;;20363;6881;279712;-90
2022/10/30 05:40:42;;;;;;;13.00;5.55;;;16.30;56.80;;;;;;20384;6881;312327;-94
2022/10/30 05:43:08;;;;;;;6.93;5.20;;;16.30;57.10;;;;;;20423;6881;341082;-95
2022/10/30 05:45:34;;;;;;;13.00;5.35;;;16.50;56.50;;;;;;20571;6902;145155;-91
2022/10/30 05:48:03;;;;;;;9.30;4.77;;;16.50;56.50;;;;;;20526;6902;121290;-89
2022/10/30 05:50:29;;;;;;;11.13;5.03;;;16.20;57.10;;;;;;20539;6887;117662;-91
2022/10/30 05:52:58;;;;;;;6.97;4.30;;;16.00;57.60;;;;;;20428;6904;68357;-91
2022/10/30 05:55:25;;;;;;;11.65;5.47;;;15.80;57.90;;;;;;20327;6902;340604;-88
2022/10/30 05:57:58;;;;;;;9.37;5.13;;;16.00;57.00;;;;;;20583;6887;120908;-91
2022/10/30 06:00:23;;;;;;;7.63;5.27;;;16.00;57.00;;;;;;20635;6872;118148;-90
2022/10/30 06:02:49;;;;;;;12.37;5.30;;;15.90;57.40;;;;;;20635;6872;119514;-92
2022/10/30 06:05:15;;;;;;;10.98;5.07;;;15.70;58.20;;;;;;20646;6872;120540;-89
2022/10/30 06:07:40;;;;;;;10.97;5.50;;;15.60;57.90;;;;;;20398;6872;313563;-93
2022/10/30 06:10:06;;;;;;;9.23;5.50;;;15.90;57.30;;;;;;20414;6872;308567;-91
2022/10/30 06:12:32;;;;;;;8.37;4.80;;;16.30;56.30;;;;;;20641;6872;117737;-90
2022/10/30 06:14:58;;;;;;;7.13;4.63;;;16.30;56.30;;;;;;20653;6872;117353;-93
2022/10/30 06:17:23;;;;;;;8.07;5.13;;;16.10;56.70;;;;;;20655;6872;117333;-90
2022/10/30 06:19:50;;;;;;;10.07;5.57;;;16.10;56.40;;;;;;20405;6871;309753;-90
2022/10/30 06:22:17;;;;;;;7.70;5.10;;;16.10;56.40;;;;;;20417;6872;314490;-90
2022/10/30 06:24:42;;;;;;;11.33;5.27;;;16.40;55.60;;;;;;20647;6872;120821;-91
2022/10/30 06:27:18;;;;;;;6.90;4.70;;;16.40;55.70;;;;;;20776;6625;68122;-90
2022/10/30 06:29:44;;;;;;;9.73;5.10;;;16.20;56.20;;;;;;20615;6756;306586;-91
2022/10/30 06:32:20;;;;;;;8.03;5.60;;;16.30;55.90;;;;;;20625;6736;276156;-90
2022/10/30 06:34:55;;;;;;;8.30;4.73;;;16.60;55.20;;;;;;20820;6736;117053;-92
2022/10/30 06:37:40;;;;;;;8.68;5.60;;;16.60;55.50;;;;;;20523;6736;316559;-91
2022/10/30 06:40:08;;;;;;;6.90;5.10;;;16.60;55.40;;;;;;20820;6736;117089;-90
2022/10/30 06:42:43;;;;;;;10.33;5.13;;;16.60;55.40;;;;;;20841;6736;118273;-89
2022/10/30 06:45:19;;;;;;;10.57;5.68;;;16.40;55.90;;;;;;20659;6736;306385;-91
2022/10/30 07:04:23;;;;;;;10.47;4.93;;;16.30;57.00;;;;;;21252;6545;93882;-91
2022/10/30 07:06:48;;;;;;;8.15;5.32;;;16.20;57.30;;;;;;20446;6838;281098;-90
2022/10/30 07:09:14;;;;;;;7.77;5.27;;;16.40;56.40;;;;;;20394;6879;312800;-90
2022/10/30 07:11:44;;;;;;;9.93;5.37;;;16.90;55.30;;;;;;20611;6879;119533;-89
2022/10/30 07:14:05;;;;;;;10.03;5.57;;;17.00;55.40;;;;;;20353;6894;300996;-90
2022/10/30 07:16:30;;;;;;;7.87;5.07;;;17.20;54.80;;;;;;20382;6882;312046;-89
2022/10/30 07:18:56;;;;;;;8.37;5.50;;;17.60;54.40;;;;;;20312;6895;317230;-91
2022/10/30 07:21:23;;;;;;;10.77;4.83;;;17.90;53.20;;;;;;20564;6889;118067;-90
2022/10/30 07:23:49;;;;;;;11.40;5.97;;;17.90;53.50;;;;;;20351;6889;280526;-89
2022/10/30 07:26:15;;;;;;;9.23;5.30;;;18.30;52.50;;;;;;20381;6889;279812;-88
2022/10/30 07:28:41;;;;;;;10.10;5.33;;;18.30;52.50;;;;;;20325;6901;310219;-88
2022/10/30 07:31:06;;;;;;;9.02;5.68;;;18.50;52.00;;;;;;20334;6901;311275;-88
2022/10/30 07:33:32;;;;;;;7.90;4.60;;;18.70;51.60;;;;;;20498;6898;133138;-90
2022/10/30 07:36:01;;;;;;;8.30;5.53;;;18.60;52.00;;;;;;20356;6892;281417;-88
2022/10/30 07:38:27;;;;;;;9.23;5.00;;;18.60;52.00;;;;;;20578;6889;116859;-88
2022/10/30 07:40:52;;;;;;;6.73;4.60;;;18.50;52.50;;;;;;20562;6893;118076;-88
2022/10/30 07:43:18;;;;;;;7.87;5.07;;;18.30;53.00;;;;;;20370;6890;280463;-89
2022/10/30 07:45:46;;;;;;;5.80;4.63;;;18.40;52.50;;;;;;20562;6888;118912;-89
2022/10/30 07:48:12;;;;;;;7.77;4.73;;;18.30;52.70;;;;;;20543;6903;119379;-90
2022/10/30 07:50:37;;;;;;;8.20;4.90;;;18.10;53.30;;;;;;20547;6900;120602;-88
2022/10/30 07:53:03;;;;;;;8.82;4.97;;;17.90;53.70;;;;;;20358;6895;281065;-90
2022/10/30 07:55:29;;;;;;;8.80;4.63;;;18.00;53.30;;;;;;20627;6880;118610;-89
2022/10/30 07:57:54;;;;;;;8.87;5.37;;;18.00;53.40;;;;;;20408;6875;312936;-89
2022/10/30 08:00:20;;;;;;;6.57;4.80;;;18.10;52.80;;;;;;20566;6889;117552;-89
2022/10/30 08:02:48;;;;;;;7.17;4.80;;;18.10;53.00;;;;;;20367;6884;309854;-90
2022/10/30 08:05:14;;;;;;;9.27;4.70;;;18.20;52.80;;;;;;20596;6884;117626;-88
2022/10/30 08:07:40;;;;;;;7.53;4.20;;;18.10;52.90;;;;;;20610;6875;120118;-90
2022/10/30 08:10:05;;;;;;;9.70;5.30;;;17.90;53.40;;;;;;20429;6875;339063;-91
2022/10/30 08:12:32;;;;;;;7.97;4.40;;;18.10;53.20;;;;;;20627;6875;117599;-91
2022/10/30 08:14:58;;;;;;;7.57;4.37;;;18.10;53.30;;;;;;20572;6893;117344;-91
2022/10/30 08:17:23;;;;;;;6.53;5.00;;;18.00;53.70;;;;;;20376;6893;316144;-91
2022/10/30 08:19:49;;;;;;;6.20;4.70;;;18.30;53.10;;;;;;20528;6893;117879;-91
2022/10/30 08:22:18;;;;;;;8.00;5.00;;;18.30;53.10;;;;;;20337;6898;310938;-90
2022/10/30 08:24:44;;;;;;;6.50;4.87;;;18.60;52.40;;;;;;20598;6884;117333;-89
2022/10/30 08:27:09;;;;;;;9.07;4.90;;;18.60;52.60;;;;;;20388;6884;279994;-90
2022/10/30 08:29:34;;;;;;;6.80;4.57;;;18.80;52.30;;;;;;20527;6902;122071;-90
2022/10/30 08:32:01;;;;;;;7.43;5.00;;;18.80;52.60;;;;;;20382;6887;309794;-91
2022/10/30 08:34:30;;;;;;;10.60;5.00;;;19.00;52.00;;;;;;20547;6902;123637;-89
2022/10/30 08:36:53;;;;;;;11.33;4.70;;;18.80;53.20;;;;;;20585;6887;117668;-90
2022/10/30 08:39:19;;;;;;;8.03;5.27;;;18.80;52.50;;;;;;20393;6887;312592;-89
2022/10/30 08:41:44;;;;;;;6.93;4.60;;;19.00;51.60;;;;;;20588;6887;117781;-90
2022/10/30 08:44:10;;;;;;;8.10;4.47;;;19.00;51.80;;;;;;20601;6888;122780;-89
2022/10/30 08:46:37;;;;;;;9.73;4.87;;;18.80;52.10;;;;;;20594;6888;120596;-88
2022/10/30 08:49:02;;;;;;;10.30;5.70;;;18.70;52.40;;;;;;20389;6888;279625;-89
2022/10/30 08:51:28;;;;;;;10.63;5.10;;;18.90;51.50;;;;;;20297;6888;309655;-88
2022/10/30 08:53:55;;;;;;;10.10;5.00;;;19.30;51.20;;;;;;20367;6888;318318;-90
2022/10/30 08:56:21;;;;;;;7.70;4.93;;;19.60;51.00;;;;;;20396;6888;279734;-88
2022/10/30 08:58:47;;;;;;;7.00;4.60;;;19.90;50.80;;;;;;20606;6889;118129;-89
2022/10/30 09:01:13;;;;;;;10.00;4.90;;;19.90;50.80;;;;;;20594;6889;117376;-88
2022/10/30 09:03:38;;;;;;;9.10;4.55;;;19.70;51.20;;;;;;20569;6889;118298;-87
2022/10/30 09:06:06;;;;;;;7.27;3.97;;;19.60;52.00;;;;;;20592;6890;125441;-91
2022/10/30 09:08:32;;;;;;;7.77;4.60;;;19.60;52.00;;;;;;20378;6890;283313;-88
2022/10/30 09:10:57;;;;;;;7.30;4.80;;;19.80;51.20;;;;;;20363;6890;310748;-89
2022/10/30 09:13:23;;;;;;;5.95;4.00;;;20.30;50.10;;;;;;20591;6886;118624;-89
2022/10/30 09:15:49;;;;;;;9.30;4.70;;;20.50;50.30;;;;;;20365;6886;310183;-88
2022/10/30 09:18:14;;;;;;;7.43;4.70;;;20.70;48.80;;;;;;20376;6888;340057;-88
2022/10/30 09:20:40;;;;;;;5.53;4.63;;;21.00;47.80;;;;;;20591;6888;117631;-88
2022/10/30 09:23:05;;;;;;;6.60;4.50;;;21.00;48.50;;;;;;20380;6888;310145;-89
2022/10/30 09:25:31;;;;;;;6.68;4.35;;;21.20;49.00;;;;;;20361;6886;310318;-87
2022/10/30 09:27:56;;;;;;;6.83;4.30;;;21.40;47.90;;;;;;20609;6887;116579;-89
2022/10/30 09:30:22;;;;;;;6.50;4.53;;;21.50;48.30;;;;;;20389;6887;309700;-89
2022/10/30 09:32:57;;;;;;;10.75;4.18;;;21.60;47.50;;;;;;20601;6887;123554;-88
2022/10/30 09:35:23;;;;;;;4.30;3.90;;;21.60;47.90;;;;;;20599;6887;117766;-89
2022/10/30 09:37:48;;;;;;;6.35;4.55;;;21.50;48.50;;;;;;20372;6887;339376;-89
2022/10/30 09:40:37;;;;;;;5.53;4.03;;;21.60;48.70;;;;;;20590;6887;118673;-90
2022/10/30 09:43:16;;;;;;;6.17;3.73;;;21.60;49.30;;;;;;20597;6886;118157;-90
2022/10/30 09:45:55;;;;;;;7.17;3.90;;;21.60;49.30;;;;;;20580;6886;117474;-89
2022/10/30 09:48:23;;;;;;;7.93;4.30;;;21.60;50.00;;;;;;20366;6886;309654;-89
2022/10/30 09:50:53;;;;;;;8.73;4.40;;;21.90;48.40;;;;;;20379;6886;309793;-89
2022/10/30 09:53:21;;;;;;;6.93;4.43;;;22.30;47.00;;;;;;20339;6888;314386;-90
2022/10/30 09:55:52;;;;;;;7.27;3.70;;;22.60;46.10;;;;;;20564;6888;118057;-89
2022/10/30 09:58:18;;;;;;;6.30;4.22;;;22.60;46.40;;;;;;20393;6879;328243;-90
2022/10/30 10:00:44;;;;;;;7.20;4.37;;;22.70;46.40;;;;;;20395;6879;310632;-89
2022/10/30 10:03:21;;;;;;;6.57;4.07;;;23.00;45.70;;;;;;20569;6890;121509;-89
2022/10/30 10:05:53;;;;;;;9.50;4.23;;;22.90;46.10;;;;;;19499;7250;122212;-88
2022/10/30 10:08:22;;;;;;;8.93;3.90;;;22.70;46.60;;;;;;20456;6888;118686;-89
2022/10/30 10:10:50;;;;;;;8.40;3.90;;;22.60;47.10;;;;;;20500;6888;117912;-89
2022/10/30 10:13:37;;;;;;;6.90;4.15;;;22.50;47.50;;;;;;20362;6888;339042;-89
2022/10/30 10:19:40;;;;;;;7.97;4.10;;;23.10;46.50;;;;;;20364;6888;339386;-89
2022/10/30 10:22:22;;;;;;;5.10;4.40;;;23.50;45.40;;;;;;20394;6888;338638;-89
2022/10/30 10:24:47;;;;;;;7.27;4.07;;;23.80;45.00;;;;;;20579;6893;116844;-89
2022/10/30 10:27:33;;;;;;;7.13;4.40;;;23.60;45.20;;;;;;20590;6893;116511;-89
2022/10/30 10:30:05;;;;;;;7.23;3.70;;;23.50;45.50;;;;;;20492;6879;118682;-89
2022/10/30 10:32:36;;;;;;;7.00;4.00;;;23.30;45.90;;;;;;20422;6872;283301;-89
2022/10/30 10:35:18;;;;;;;7.77;4.27;;;23.50;45.60;;;;;;20322;6872;279794;-94
2022/10/30 10:37:54;;;;;;;7.27;4.53;;;23.80;45.00;;;;;;20425;6870;295380;-90
2022/10/30 10:40:33;;;;;;;7.23;4.50;;;24.10;43.50;;;;;;20364;6886;310295;-89
2022/10/30 10:43:11;;;;;;;6.80;3.70;;;24.30;43.40;;;;;;20524;6901;117895;-90
2022/10/30 10:45:53;;;;;;;9.33;3.73;;;24.20;43.80;;;;;;20589;6886;117915;-91
2022/10/30 10:48:22;;;;;;;5.33;3.63;;;24.00;44.30;;;;;;20566;6886;120255;-90
2022/10/30 10:50:51;;;;;;;9.10;4.40;;;23.80;44.80;;;;;;20360;6887;308130;-89
2022/10/30 10:53:17;;;;;;;6.93;4.10;;;23.90;45.30;;;;;;20628;6887;121317;-94
2022/10/30 10:55:43;;;;;;;7.62;4.10;;;24.00;45.10;;;;;;20587;6887;117575;-91
2022/10/30 10:58:19;;;;;;;6.27;3.97;;;23.90;45.00;;;;;;20558;6899;117970;-92
2022/10/30 11:00:45;;;;;;;8.03;3.43;;;23.80;45.10;;;;;;20284;6884;118102;-93
2022/10/30 11:03:16;;;;;;;4.85;3.67;;;23.70;45.40;;;;;;20460;6884;337752;-93
2022/10/30 11:05:55;;;;;;;8.95;3.83;;;23.90;44.80;;;;;;20334;6888;338445;-89
2022/10/30 11:08:27;;;;;;;8.97;3.37;;;24.30;43.50;;;;;;20612;6889;118787;-91
2022/10/30 11:11:00;;;;;;;7.43;3.50;;;24.20;45.40;;;;;;20602;6887;119501;-92
2022/10/30 11:13:30;;;;;;;7.43;3.80;;;24.20;44.70;;;;;;20409;6884;284183;-93
2022/10/30 11:16:29;;;;;;;5.83;3.80;;;24.30;43.60;;;;;;20527;6884;118404;-90
2022/10/30 11:19:02;;;;;;;6.27;3.70;;;24.60;42.70;;;;;;20424;6884;278980;-92
2022/10/30 11:21:27;;;;;;;7.23;3.77;;;24.60;42.70;;;;;;20534;6884;117448;-93
2022/10/30 11:23:53;;;;;;;8.33;4.00;;;24.60;42.80;;;;;;20346;6887;340400;-94
2022/10/30 11:26:19;;;;;;;6.50;3.93;;;24.60;42.40;;;;;;20604;6887;121625;-91
2022/10/30 11:28:53;;;;;;;5.75;3.58;;;24.60;42.60;;;;;;20630;6887;116519;-92
2022/10/30 11:31:19;;;;;;;8.60;3.33;;;24.30;43.20;;;;;;20577;6887;116928;-91
2022/10/30 11:33:44;;;;;;;5.80;3.40;;;24.20;43.90;;;;;;20534;6887;141217;-89
2022/10/30 11:36:10;;;;;;;6.63;3.60;;;24.00;44.30;;;;;;20322;6887;319840;-88
2022/10/30 11:38:35;;;;;;;8.27;3.53;;;24.10;43.30;;;;;;20558;6887;120260;-88
2022/10/30 11:41:01;;;;;;;6.70;4.03;;;24.10;43.20;;;;;;20378;6887;284695;-87
2022/10/30 11:43:26;;;;;;;5.33;3.33;;;24.20;41.80;;;;;;20579;6887;120607;-87
2022/10/30 11:45:53;;;;;;;6.30;3.60;;;24.20;42.20;;;;;;20340;6887;310600;-86
2022/10/30 11:48:26;;;;;;;6.47;3.37;;;24.30;42.00;;;;;;20574;6885;118134;-86
2022/10/30 11:50:51;;;;;;;4.63;3.13;;;24.30;42.60;;;;;;20596;6886;117804;-86
2022/10/30 11:53:20;;;;;;;8.25;3.60;;;24.10;43.10;;;;;;20525;6886;117413;-86
2022/10/30 11:55:46;;;;;;;5.80;3.43;;;23.90;43.60;;;;;;20522;6886;117297;-87
2022/10/30 11:58:18;;;;;;;7.47;3.50;;;23.80;44.10;;;;;;20360;6887;339198;-87
2022/10/30 12:00:44;;;;;;;4.53;3.63;;;24.00;44.60;;;;;;20346;6887;309777;-85
2022/10/30 12:03:10;;;;;;;3.55;3.00;;;24.40;43.70;;;;;;20589;6887;120454;-87
2022/10/30 12:05:39;;;;;;;7.93;3.23;;;24.40;43.20;;;;;;20510;6884;121490;-87
2022/10/30 12:08:08;;;;;;;5.90;3.30;;;24.30;43.30;;;;;;20521;6884;123924;-86
2022/10/30 12:10:43;;;;;;;4.73;3.00;;;24.20;43.60;;;;;;20600;6884;117708;-86
2022/10/30 12:13:15;;;;;;;5.55;3.35;;;24.10;43.80;;;;;;20377;6884;309203;-86
2022/10/30 12:15:40;;;;;;;7.10;3.60;;;24.30;42.40;;;;;;20362;6884;293200;-86
2022/10/30 12:18:06;;;;;;;5.50;3.60;;;24.70;42.90;;;;;;20374;6884;326061;-85
2022/10/30 12:20:31;;;;;;;6.03;3.55;;;25.00;42.50;;;;;;20382;6884;310478;-86
2022/10/30 12:22:57;;;;;;;7.20;3.27;;;25.30;41.80;;;;;;20577;6884;118385;-87
2022/10/30 12:25:25;;;;;;;6.30;3.60;;;25.20;42.20;;;;;;20338;6884;280080;-87
2022/10/30 12:28:07;;;;;;;8.93;3.33;;;25.30;41.80;;;;;;20566;6884;118027;-85
2022/10/30 12:30:36;;;;;;;3.43;3.13;;;25.20;42.20;;;;;;20580;6884;117400;-85
2022/10/30 12:33:15;;;;;;;7.82;3.60;;;25.00;42.60;;;;;;20373;6884;280253;-84
2022/10/30 12:35:44;;;;;;;4.90;3.07;;;25.10;41.60;;;;;;20573;6884;119941;-85
2022/10/30 12:38:49;;;;;;;6.00;3.70;;;25.10;41.70;;;;;;20577;6884;117626;-84
2022/10/30 12:41:28;;;;;;;3.63;3.17;;;24.70;42.90;;;;;;20510;6884;120839;-84
2022/10/30 12:43:57;;;;;;;5.70;3.40;;;24.70;42.90;;;;;;20349;6884;338454;-85
2022/10/30 12:46:42;;;;;;;4.57;3.70;;;25.00;42.30;;;;;;21031;6502;278841;-83
2022/10/30 12:49:24;;;;;;;5.12;3.47;;;25.30;41.50;;;;;;20547;6826;295667;-83
2022/10/30 12:51:53;;;;;;;8.87;3.47;;;25.60;42.10;;;;;;20740;6826;123906;-83
2022/10/30 12:54:29;;;;;;;6.30;3.43;;;25.50;41.70;;;;;;20372;6833;278970;-83
2022/10/30 12:56:55;;;;;;;6.13;3.57;;;25.50;41.70;;;;;;20417;6832;279750;-84
2022/10/30 12:59:26;;;;;;;8.40;3.80;;;25.80;42.20;;;;;;20473;6839;345710;-84
2022/10/30 13:01:58;;;;;;;4.23;3.60;;;26.00;42.00;;;;;;20485;6839;279636;-83
2022/10/30 13:04:24;;;;;;;7.50;3.40;;;25.90;42.10;;;;;;20739;6824;117776;-83
2022/10/30 13:06:56;;;;;;;3.33;2.90;;;25.90;41.40;;;;;;20762;6824;117172;-83
2022/10/30 13:09:55;;;;;;;7.47;3.37;;;25.60;42.00;;;;;;20551;6824;307968;-84
2022/10/30 13:12:20;;;;;;;5.17;3.30;;;25.60;42.30;;;;;;20667;6824;120417;-86
2022/10/30 13:14:56;;;;;;;6.00;3.80;;;25.50;42.10;;;;;;20510;6838;338610;-84
2022/10/30 13:17:22;;;;;;;7.22;3.65;;;25.60;42.50;;;;;;20514;6838;308077;-84
2022/10/30 13:19:47;;;;;;;5.80;3.40;;;25.80;41.90;;;;;;20726;6834;117131;-84
2022/10/30 13:22:22;;;;;;;3.53;3.23;;;25.70;42.10;;;;;;20744;6834;119844;-84
2022/10/30 13:24:48;;;;;;;6.37;3.57;;;25.50;42.40;;;;;;20472;6834;278880;-85
2022/10/30 13:27:33;;;;;;;7.00;3.75;;;25.50;41.60;;;;;;20421;6833;307491;-84
2022/10/30 13:30:00;;;;;;;5.87;3.60;;;25.70;41.30;;;;;;20688;6843;117762;-84
2022/10/30 13:32:57;;;;;;;6.10;3.50;;;25.60;41.40;;;;;;20517;6843;336410;-85
2022/10/30 13:35:36;;;;;;;5.47;3.57;;;25.60;40.30;;;;;;20690;6843;117215;-86
2022/10/30 13:38:21;;;;;;;6.23;3.30;;;25.50;40.90;;;;;;20707;6843;117614;-85
2022/10/30 13:40:57;;;;;;;6.67;3.40;;;25.20;41.50;;;;;;20717;6843;120247;-85
2022/10/30 13:43:32;;;;;;;8.07;3.13;;;25.00;41.90;;;;;;19973;6843;122277;-85
2022/10/30 13:46:14;;;;;;;4.07;3.30;;;24.90;42.30;;;;;;20694;6843;117834;-86
2022/10/30 13:48:57;;;;;;;6.93;3.53;;;24.60;43.40;;;;;;20717;6840;117256;-85
2022/10/30 13:51:36;;;;;;;6.70;2.90;;;24.60;43.40;;;;;;20709;6840;117309;-85
2022/10/30 13:54:11;;;;;;;6.47;3.80;;;24.50;44.10;;;;;;20514;6840;308024;-85
2022/10/30 13:56:36;;;;;;;6.63;3.00;;;24.80;43.50;;;;;;20721;6838;117129;-84
2022/10/30 13:59:06;;;;;;;6.97;3.62;;;25.00;44.30;;;;;;20464;6837;281186;-87
2022/10/30 14:01:31;;;;;;;6.67;3.23;;;25.00;43.90;;;;;;20314;6852;119174;-87
2022/10/30 14:04:14;;;;;;;3.63;3.10;;;24.80;44.50;;;;;;20639;6855;117803;-87
2022/10/30 14:06:49;;;;;;;4.43;3.20;;;24.80;43.80;;;;;;20459;6852;307581;-87
2022/10/30 14:09:24;;;;;;;6.17;3.37;;;25.00;41.90;;;;;;20731;6837;117454;-87
2022/10/30 14:11:50;;;;;;;4.93;2.97;;;24.90;42.10;;;;;;20795;6814;123431;-87
2022/10/30 14:14:22;;;;;;;5.65;3.20;;;24.80;42.70;;;;;;20479;6814;306931;-87
2022/10/30 14:16:48;;;;;;;5.60;3.40;;;24.90;42.60;;;;;;20597;6814;323474;-87
2022/10/30 14:19:14;;;;;;;5.67;3.07;;;25.10;43.30;;;;;;20726;6814;117822;-87
2022/10/30 14:21:46;;;;;;;5.73;3.37;;;25.10;43.10;;;;;;20569;6814;311755;-87
2022/10/30 14:24:15;;;;;;;4.43;3.33;;;25.20;44.60;;;;;;20598;6814;307698;-86
2022/10/30 14:26:50;;;;;;;4.30;3.23;;;25.40;44.60;;;;;;20800;6814;117430;-86
2022/10/30 14:29:32;;;;;;;5.73;2.80;;;25.20;44.30;;;;;;20603;6840;119922;-87
2022/10/30 14:31:57;;;;;;;5.53;3.50;;;24.90;44.60;;;;;;20737;6838;117332;-87
2022/10/30 14:34:46;;;;;;;3.73;3.33;;;24.60;45.40;;;;;;20475;6853;313989;-86
2022/10/30 14:37:12;;;;;;;6.23;3.40;;;24.60;47.20;;;;;;20659;6854;118005;-88
2022/10/30 14:39:42;;;;;;;5.93;3.35;;;24.30;47.40;;;;;;20664;6857;127691;-87
2022/10/30 14:42:41;;;;;;;5.47;3.13;;;24.00;47.30;;;;;;20740;6835;118393;-85
2022/10/30 14:45:30;;;;;;;4.37;3.10;;;24.00;47.00;;;;;;20656;6839;117305;-89
2022/10/30 14:48:15;;;;;;;4.33;2.97;;;23.80;47.20;;;;;;20554;6852;118196;-87
2022/10/30 14:50:48;;;;;;;4.35;3.40;;;23.70;48.90;;;;;;20486;6852;316555;-85
2022/10/30 14:53:30;;;;;;;6.20;3.40;;;23.70;48.90;;;;;;20489;6852;303754;-86
2022/10/30 14:56:02;;;;;;;3.30;3.00;;;24.00;48.70;;;;;;20646;6852;118077;-92
2022/10/30 14:58:27;;;;;;;5.93;2.73;;;23.90;48.30;;;;;;20670;6852;120940;-88
2022/10/30 15:01:03;;;;;;;6.30;3.37;;;23.60;48.40;;;;;;20433;6852;294357;-91
2022/10/30 15:03:48;;;;;;;5.07;2.87;;;23.70;48.20;;;;;;20675;6852;117332;-89
2022/10/30 15:06:40;;;;;;;4.77;3.60;;;23.60;47.90;;;;;;20471;6854;283458;-89
2022/10/30 15:09:09;;;;;;;5.55;3.70;;;24.00;47.60;;;;;;20475;6853;313372;-89
2022/10/30 15:11:38;;;;;;;8.57;3.00;;;24.00;47.60;;;;;;20631;6851;120967;-90
2022/10/30 15:14:18;;;;;;;4.47;3.23;;;23.80;47.50;;;;;;20687;6851;118172;-87
2022/10/30 15:16:45;;;;;;;3.70;3.17;;;23.50;48.00;;;;;;20369;6851;118467;-93
2022/10/30 15:19:10;;;;;;;5.70;3.03;;;23.20;48.60;;;;;;20712;6837;117230;-90
2022/10/30 15:21:42;;;;;;;3.58;3.08;;;23.10;49.00;;;;;;20498;6837;311835;-89
2022/10/30 15:24:13;;;;;;;6.73;3.50;;;23.30;50.00;;;;;;20513;6837;310914;-88
2022/10/30 15:26:38;;;;;;;3.70;2.90;;;23.60;48.90;;;;;;20763;6822;117161;-88
2022/10/30 15:29:06;;;;;;;6.05;3.28;;;23.80;49.00;;;;;;20591;6822;336062;-88
2022/10/30 15:31:32;;;;;;;4.95;3.10;;;24.00;48.70;;;;;;20480;6837;309068;-88
2022/10/30 15:33:59;;;;;;;5.33;3.37;;;23.90;47.90;;;;;;20743;6839;117812;-89
2022/10/30 15:36:29;;;;;;;3.67;3.27;;;23.80;48.40;;;;;;20462;6839;278151;-89
2022/10/30 15:39:04;;;;;;;3.85;3.17;;;23.90;48.80;;;;;;20514;6824;336403;-88
2022/10/30 15:41:30;;;;;;;3.90;3.43;;;24.00;48.70;;;;;;20496;6839;307747;-89
2022/10/30 15:43:57;;;;;;;5.67;3.60;;;24.20;48.20;;;;;;20722;6839;117397;-89
2022/10/30 15:46:21;;;;;;;6.30;3.23;;;23.90;47.90;;;;;;20710;6840;117362;-89
2022/10/30 15:48:48;;;;;;;6.55;3.20;;;23.50;48.20;;;;;;20767;6825;117526;-89
2022/10/30 15:51:20;;;;;;;3.70;3.07;;;23.10;48.40;;;;;;20700;6839;119281;-89
2022/10/30 15:53:46;;;;;;;9.50;3.17;;;22.60;49.20;;;;;;20764;6825;117237;-87
2022/10/30 15:56:28;;;;;;;3.20;2.90;;;22.60;49.20;;;;;;20786;6825;116419;-88
2022/10/30 15:59:01;;;;;;;5.93;3.10;;;22.20;49.40;;;;;;20779;6825;117640;-89
2022/10/30 16:01:33;;;;;;;5.23;3.30;;;22.20;49.30;;;;;;20567;6825;282247;-87
2022/10/30 16:03:58;;;;;;;3.70;3.28;;;22.40;49.90;;;;;;20542;6825;308289;-89
2022/10/30 16:06:23;;;;;;;6.07;3.30;;;22.80;49.40;;;;;;20577;6825;307275;-87
2022/10/30 16:08:49;;;;;;;4.10;3.53;;;23.00;48.50;;;;;;20565;6825;308531;-88
2022/10/30 16:11:14;;;;;;;5.00;3.28;;;23.20;48.50;;;;;;20564;6825;339997;-87
2022/10/30 16:13:40;;;;;;;6.13;3.60;;;23.30;48.30;;;;;;20553;6825;308409;-87
2022/10/30 16:16:06;;;;;;;6.43;3.87;;;23.40;47.80;;;;;;20561;6825;337047;-88
2022/10/30 16:18:34;;;;;;;6.47;3.27;;;23.40;47.90;;;;;;20765;6825;118092;-88
2022/10/30 16:21:01;;;;;;;6.17;3.17;;;23.10;48.10;;;;;;20776;6823;117535;-88
2022/10/30 16:23:27;;;;;;;5.40;3.20;;;22.80;48.70;;;;;;20552;6824;309542;-89
2022/10/30 16:25:53;;;;;;;10.03;3.47;;;22.70;48.60;;;;;;20763;6824;121873;-86
2022/10/30 16:28:36;;;;;;;4.23;3.20;;;22.60;48.60;;;;;;20743;6824;117665;-86
2022/10/30 16:31:00;;;;;;;5.17;3.60;;;22.30;48.90;;;;;;20569;6824;277646;-87
2022/10/30 16:33:26;;;;;;;3.87;3.58;;;22.30;49.10;;;;;;20557;6824;308594;-87
2022/10/30 16:35:53;;;;;;;6.80;3.30;;;22.50;49.30;;;;;;20759;6824;117402;-86
2022/10/30 16:38:18;;;;;;;5.10;3.70;;;22.40;48.80;;;;;;20560;6824;312459;-85
2022/10/30 16:40:44;;;;;;;4.82;3.70;;;22.40;49.00;;;;;;20563;6824;279106;-85
2022/10/30 16:43:26;;;;;;;5.60;3.80;;;22.50;48.80;;;;;;20546;6824;310111;-87
2022/10/30 16:45:52;;;;;;;5.17;3.70;;;22.40;48.60;;;;;;20688;6824;119710;-86
2022/10/30 16:48:19;;;;;;;6.03;3.73;;;22.40;48.60;;;;;;20574;6824;280320;-88
2022/10/30 16:50:44;;;;;;;7.05;4.45;;;22.40;49.00;;;;;;20562;6824;278913;-87
2022/10/30 16:53:10;;;;;;;5.23;4.50;;;22.50;49.00;;;;;;20576;6824;278486;-86
2022/10/30 16:55:37;;;;;;;5.27;4.40;;;22.30;48.70;;;;;;20719;6824;118310;-88
2022/10/30 16:58:02;;;;;;;7.00;4.23;;;22.30;48.70;;;;;;20779;6825;117581;-87
2022/10/30 17:00:27;;;;;;;6.73;4.50;;;21.90;49.10;;;;;;20780;6825;116290;-89
2022/10/30 17:02:53;;;;;;;10.97;5.90;;;21.50;49.50;;;;;;20782;6825;118192;-88
2022/10/30 17:05:29;;;;;;;6.63;6.00;;;21.00;50.10;;;;;;20782;6825;124226;-84
2022/10/30 17:07:59;;;;;;;7.93;6.13;;;21.10;50.20;;;;;;20791;6825;117292;-89
2022/10/30 17:10:41;;;;;;;7.75;6.95;;;20.90;50.30;;;;;;20569;6825;336640;-88
2022/10/30 17:13:33;;;;;;;10.50;9.50;;;21.00;50.60;;;;;;20776;6825;117972;-87
2022/10/30 17:16:22;;;;;;;8.97;8.10;;;21.00;50.30;;;;;;20774;6825;118888;-86
2022/10/30 17:18:48;;;;;;;6.83;6.07;;;20.80;50.40;;;;;;20780;6825;120593;-86
2022/10/30 17:21:17;;;;;;;6.07;5.57;;;20.60;50.70;;;;;;20755;6825;117990;-89
2022/10/30 17:23:43;;;;;;;6.65;5.32;;;20.40;50.80;;;;;;20542;6825;292293;-88
2022/10/30 17:26:08;;;;;;;6.00;5.20;;;20.60;51.20;;;;;;20570;6825;279160;-86
2022/10/30 17:28:34;;;;;;;5.80;5.20;;;21.00;50.90;;;;;;20567;6825;326918;-86
2022/10/30 17:31:19;;;;;;;5.10;4.60;;;21.30;50.10;;;;;;20774;6823;117971;-87
2022/10/30 17:33:45;;;;;;;7.73;5.43;;;21.10;49.90;;;;;;20537;6824;331553;-86
2022/10/30 17:36:11;;;;;;;4.87;4.47;;;21.00;50.00;;;;;;20757;6824;119481;-86
2022/10/30 17:38:37;;;;;;;6.07;5.22;;;21.10;50.00;;;;;;20547;6824;306980;-87
2022/10/30 17:41:03;;;;;;;7.03;5.63;;;21.10;49.90;;;;;;20785;6824;117668;-86
2022/10/30 17:43:28;;;;;;;6.33;5.70;;;21.00;50.00;;;;;;20566;6824;318040;-88
2022/10/30 17:45:54;;;;;;;6.70;5.70;;;21.10;50.10;;;;;;20548;6824;282531;-86
2022/10/30 17:48:20;;;;;;;6.90;6.20;;;21.40;49.50;;;;;;20535;6824;307530;-87
2022/10/30 17:50:45;;;;;;;5.70;5.20;;;21.50;48.60;;;;;;20765;6824;118292;-85
2022/10/30 17:53:14;;;;;;;9.03;5.47;;;21.20;48.70;;;;;;20566;6824;308409;-84
2022/10/30 17:55:40;;;;;;;8.17;5.13;;;20.70;49.50;;;;;;20753;6824;117629;-86
2022/10/30 17:58:06;;;;;;;5.60;5.10;;;20.70;49.40;;;;;;20719;6824;124007;-90
2022/10/30 18:00:32;;;;;;;10.33;5.20;;;19.90;50.60;;;;;;20754;6824;117636;-91
2022/10/30 18:02:58;;;;;;;7.00;5.70;;;19.90;50.50;;;;;;20560;6824;283372;-86
2022/10/30 18:05:23;;;;;;;7.50;5.47;;;19.90;51.30;;;;;;20568;6824;312452;-87
2022/10/30 18:07:50;;;;;;;5.53;5.10;;;20.00;51.80;;;;;;20754;6824;117974;-86
2022/10/30 18:10:15;;;;;;;6.32;5.82;;;20.00;51.10;;;;;;20579;6825;325875;-87
2022/10/30 18:12:41;;;;;;;6.20;5.37;;;20.00;51.50;;;;;;20569;6825;346381;-89
2022/10/30 18:15:31;;;;;;;7.30;5.47;;;20.10;51.50;;;;;;20574;6825;307522;-87
2022/10/30 18:17:56;;;;;;;6.77;5.33;;;20.20;51.40;;;;;;19484;7186;290806;-87